Hmcs Charlottetown — CGAJ — position and weather

sailwx.info

Track history (hours):
 
Tides and Currents Weather Stations Pressure Air Temp Water Temp Dewpoint Dewpoint Depression Visibility Wind Speed Wind Dir Waves Ship Positions

Hmcs Charlottetown

Last reported at 2017-Jun-17 02:34 UTC. Time now 2017-Oct-23 06:28 UTC.
Position N 37°44' W 074°04'.
Warning: this ship's position is months out of date.

; draft 7.5 m.

Type: Military. MMSI: 235830006.

Date/timePositionNaut miles runAvg speedWind from/ knotsBaromVisibWave heightAir tempDewpointWater temp
2017-Jun-17 02:34N 37°44' W 074°04'1321.9
2017-Jun-17 01:58N 37°37' W 074°18'1021.2
2017-Jun-17 01:31N 37°32' W 074°29'1325.1
2017-Jun-17 01:01N 37°25' W 074°42'1224.7
2017-Jun-17 00:30N 37°19' W 074°55'5418.0
2017-Jun-16 21:31N 36°52' W 075°54'0 2.2
2017-Jun-16 21:30N 36°52' W 075°54'2 3.9
2017-Jun-16 21:00N 36°51' W 075°55'1 2.3
2017-Jun-16 20:30N 36°51' W 075°54'1 1.5
2017-Jun-16 20:00N 36°52' W 075°55'1 2.2
2017-Jun-16 19:30N 36°52' W 075°54'3 5.0
2017-Jun-16 18:59N 36°52' W 075°51'4419.1
2017-Jun-16 16:41N 36°34' W 075°01'424.8
2017-Jun-16 16:30N 36°33' W 074°56'48 1.1
2017-Jun-14 19:54N 36°51' W 075°52'410.3
2017-Jun-14 19:30N 36°54' W 075°55'917.2
2017-Jun-14 19:00N 36°58' W 076°05'1212.7
2017-Jun-14 18:03N 36°56' W 076°20'0 0.0
2017-Jun-14 12:49N 36°56' W 076°20'0 0.0
2017-Jun-14 12:28N 36°56' W 076°20'0 0.0
2017-Jun-14 11:54N 36°56' W 076°20'10 9.0
2017-Jun-14 10:46N 36°59' W 076°08'414.7
2017-Jun-14 10:30N 36°58' W 076°03'714.3
2017-Jun-14 10:00N 36°55' W 075°55'  
Track history (hours):
 
Tides and Currents Weather Stations Pressure Air Temp Water Temp Dewpoint Dewpoint Depression Visibility Wind Speed Wind Dir Waves Ship Positions

Hmcs Charlottetown

Last reported at 2017-Jun-17 02:34 UTC. Time now 2017-Oct-23 06:28 UTC.
Position N 37°44' W 074°04'.
Warning: this ship's position is months out of date.

; draft 7.5 m.

Type: Military. MMSI: 235830006.

Date/timePositionNaut miles runAvg speedWind from/ knotsBaromVisibWave heightAir tempDewpointWater temp
2017-Jun-17 02:34N 37°44' W 074°04'1321.9
2017-Jun-17 01:58N 37°37' W 074°18'1021.2
2017-Jun-17 01:31N 37°32' W 074°29'1325.1
2017-Jun-17 01:01N 37°25' W 074°42'1224.7
2017-Jun-17 00:30N 37°19' W 074°55'5418.0
2017-Jun-16 21:31N 36°52' W 075°54'0 2.2
2017-Jun-16 21:30N 36°52' W 075°54'2 3.9
2017-Jun-16 21:00N 36°51' W 075°55'1 2.3
2017-Jun-16 20:30N 36°51' W 075°54'1 1.5
2017-Jun-16 20:00N 36°52' W 075°55'1 2.2
2017-Jun-16 19:30N 36°52' W 075°54'3 5.0
2017-Jun-16 18:59N 36°52' W 075°51'4419.1
2017-Jun-16 16:41N 36°34' W 075°01'424.8
2017-Jun-16 16:30N 36°33' W 074°56'48 1.1
2017-Jun-14 19:54N 36°51' W 075°52'410.3
2017-Jun-14 19:30N 36°54' W 075°55'917.2
2017-Jun-14 19:00N 36°58' W 076°05'1212.7
2017-Jun-14 18:03N 36°56' W 076°20'0 0.0
2017-Jun-14 12:49N 36°56' W 076°20'0 0.0
2017-Jun-14 12:28N 36°56' W 076°20'0 0.0
2017-Jun-14 11:54N 36°56' W 076°20'10 9.0
2017-Jun-14 10:46N 36°59' W 076°08'414.7
2017-Jun-14 10:30N 36°58' W 076°03'714.3
2017-Jun-14 10:00N 36°55' W 075°55'  

Dump ship's entire track history